Time;durP1;ratioP1;P1;durP2;ratioP2;P2;SDS_P1;SDS_P2;PMS_P1;PMS_P2;Temp;Humidity;BMP_temperature;BMP_pressure;BME280_temperature;BME280_humidity;BME280_pressure;Samples;Min_cycle;Max_cycle;Signal;HPM_P1;HPM_P2
2022/02/25 07:47:19;;;;;;;4.13;1.83;;;;;;;;;;7373078;19;132475;-14
2022/02/25 07:49:52;;;;;;;5.40;1.83;;;;;;;;;;7365826;19;153571;-15
2022/02/25 07:52:24;;;;;;;4.20;1.65;;;;;;;;;;7365017;19;162064;-15
2022/02/25 07:54:55;;;;;;;12.65;1.88;;;;;;;;;;7363332;19;162369;-15
2022/02/25 07:57:29;;;;;;;4.53;1.90;;;;;;;;;;7364594;19;153852;-15
2022/02/25 08:00:17;;;;;;;3.78;1.63;;;;;;;;;;7364106;19;153736;-14
2022/02/25 08:02:51;;;;;;;5.72;1.60;;;;;;;;;;7363752;19;161785;-14
2022/02/25 08:05:22;;;;;;;4.13;1.52;;;;;;;;;;7362734;19;162449;-15
2022/02/25 08:07:54;;;;;;;3.63;1.40;;;;;;;;;;7364188;19;154083;-14
2022/02/25 08:10:25;;;;;;;3.38;2.05;;;;;;;;;;7364115;19;153589;-14
2022/02/25 08:12:57;;;;;;;5.10;1.90;;;;;;;;;;7363500;19;161760;-14
2022/02/25 08:15:28;;;;;;;3.90;2.25;;;;;;;;;;7362669;19;162431;-15
2022/02/25 08:18:02;;;;;;;3.13;1.50;;;;;;;;;;7364125;19;153878;-14
2022/02/25 08:20:34;;;;;;;2.55;1.40;;;;;;;;;;7362928;19;153934;-15
2022/02/25 08:23:06;;;;;;;3.80;1.63;;;;;;;;;;7363396;19;161815;-15
2022/02/25 08:25:38;;;;;;;4.47;1.48;;;;;;;;;;7363035;19;162105;-15
2022/02/25 08:28:11;;;;;;;2.60;1.60;;;;;;;;;;7363537;19;153860;-14
2022/02/25 08:30:43;;;;;;;3.70;1.80;;;;;;;;;;7362253;19;153753;-17
2022/02/25 08:33:17;;;;;;;4.30;2.60;;;;;;;;;;7363097;19;162139;-14
2022/02/25 08:35:49;;;;;;;5.85;1.92;;;;;;;;;;7361285;19;162521;-14
2022/02/25 08:38:20;;;;;;;3.88;1.40;;;;;;;;;;7363137;19;154021;-14
2022/02/25 08:40:51;;;;;;;2.20;1.35;;;;;;;;;;7363146;19;153498;-16
2022/02/25 08:43:23;;;;;;;4.85;1.88;;;;;;;;;;7362844;19;162204;-14
2022/02/25 08:46:09;;;;;;;4.90;1.63;;;;;;;;;;7357631;19;162393;-15
2022/02/25 08:48:44;;;;;;;3.85;1.33;;;;;;;;;;7332962;19;153935;-16
2022/02/25 08:51:15;;;;;;;3.10;1.80;;;;;;;;;;7333924;19;153518;-16
2022/02/25 08:53:47;;;;;;;3.47;1.65;;;;;;;;;;7333466;19;162410;-15
2022/02/25 08:56:18;;;;;;;2.30;1.50;;;;;;;;;;7333464;19;162604;-16
2022/02/25 08:58:51;;;;;;;2.47;1.15;;;;;;;;;;7333748;19;154116;-15
2022/02/25 09:01:22;;;;;;;1.42;1.30;;;;;;;;;;7333847;19;153558;-16
2022/02/25 09:04:00;;;;;;;3.75;1.65;;;;;;;;;;7333479;19;161800;-15
2022/02/25 09:06:31;;;;;;;4.22;1.58;;;;;;;;;;7331963;19;162611;-14
2022/02/25 09:09:02;;;;;;;4.35;2.25;;;;;;;;;;7332488;19;153900;-15
2022/02/25 09:11:34;;;;;;;3.92;1.63;;;;;;;;;;7333766;19;153563;-14
2022/02/25 09:14:05;;;;;;;3.55;1.60;;;;;;;;;;7333211;19;161999;-14
2022/02/25 09:16:37;;;;;;;4.05;1.70;;;;;;;;;;7332913;19;162388;-14
2022/02/25 09:19:11;;;;;;;4.65;1.83;;;;;;;;;;7333229;19;153966;-15
2022/02/25 09:21:43;;;;;;;3.85;2.00;;;;;;;;;;7332113;19;153496;-14
2022/02/25 09:24:14;;;;;;;5.10;1.58;;;;;;;;;;7332722;19;161862;-14
2022/02/25 09:26:46;;;;;;;3.20;1.85;;;;;;;;;;7331332;19;162378;-14
2022/02/25 09:29:17;;;;;;;4.38;1.60;;;;;;;;;;7333119;19;153990;-15
2022/02/25 09:31:49;;;;;;;2.53;1.70;;;;;;;;;;7331842;19;153537;-15
2022/02/25 09:34:22;;;;;;;4.20;1.30;;;;;;;;;;7332639;19;161884;-15
2022/02/25 09:36:54;;;;;;;3.83;1.50;;;;;;;;;;7332566;19;162562;-15
2022/02/25 09:39:25;;;;;;;2.60;1.38;;;;;;;;;;7331737;19;153988;-16
2022/02/25 09:41:56;;;;;;;5.00;1.67;;;;;;;;;;7331562;19;153449;-15
2022/02/25 09:44:28;;;;;;;3.10;1.52;;;;;;;;;;7332124;19;161857;-15
2022/02/25 09:47:00;;;;;;;4.00;1.40;;;;;;;;;;7329677;19;162630;-15
2022/02/25 09:49:34;;;;;;;4.07;1.58;;;;;;;;;;7332466;19;153930;-26
2022/02/25 09:52:06;;;;;;;2.17;1.30;;;;;;;;;;7332387;19;153582;-15
2022/02/25 09:54:37;;;;;;;3.20;1.63;;;;;;;;;;7331572;19;162102;-15
2022/02/25 09:57:09;;;;;;;3.22;1.45;;;;;;;;;;7331767;19;162416;-22
2022/02/25 09:59:40;;;;;;;4.35;1.77;;;;;;;;;;7329712;19;153913;-14
2022/02/25 10:02:11;;;;;;;3.33;1.65;;;;;;;;;;7332185;19;153709;-15
2022/02/25 10:04:45;;;;;;;4.18;1.40;;;;;;;;;;7331455;19;162054;-14
2022/02/25 10:07:27;;;;;;;2.25;1.40;;;;;;;;;;7330082;19;162686;-16
2022/02/25 10:10:00;;;;;;;3.13;1.50;;;;;;;;;;7331776;19;154137;-14
2022/02/25 10:12:32;;;;;;;3.20;1.65;;;;;;;;;;7331756;19;153628;-14
2022/02/25 10:15:03;;;;;;;2.53;1.70;;;;;;;;;;7330454;19;161839;-14
2022/02/25 10:17:35;;;;;;;2.95;1.45;;;;;;;;;;7330173;19;162637;-14
2022/02/25 10:20:15;;;;;;;3.15;1.33;;;;;;;;;;7331965;19;154259;-15
2022/02/25 10:22:59;;;;;;;;;;;;;;;;;;7331985;19;153592;-16
2022/02/25 10:25:36;;;;;;;3.38;1.30;;;;;;;;;;7331261;19;162225;-16
2022/02/25 10:28:08;;;;;;;3.60;1.35;;;;;;;;;;7327554;19;162371;-15
2022/02/25 10:30:40;;;;;;;3.73;1.53;;;;;;;;;;7331271;19;154085;-16
2022/02/25 10:33:11;;;;;;;4.32;1.27;;;;;;;;;;7330550;19;153515;-16
2022/02/25 10:35:45;;;;;;;2.90;1.08;;;;;;;;;;7330764;19;162087;-16
2022/02/25 10:38:19;;;;;;;3.20;1.30;;;;;;;;;;7330721;19;163165;-16
2022/02/25 10:40:52;;;;;;;3.63;1.88;;;;;;;;;;7329839;19;153970;-16
2022/02/25 10:43:28;;;;;;;2.72;1.75;;;;;;;;;;7330914;19;153494;-16
2022/02/25 10:46:03;;;;;;;3.33;1.60;;;;;;;;;;7328830;19;162107;-15
2022/02/25 10:48:36;;;;;;;3.58;1.55;;;;;;;;;;7327017;19;162455;-16
2022/02/25 10:51:11;;;;;;;2.53;1.33;;;;;;;;;;7330843;19;154295;-16
2022/02/25 10:53:51;;;;;;;3.47;1.35;;;;;;;;;;7330852;19;153819;-16
2022/02/25 10:56:24;;;;;;;3.15;1.50;;;;;;;;;;7330119;19;162393;-15
2022/02/25 10:58:58;;;;;;;2.72;1.60;;;;;;;;;;7329104;19;162434;-15
2022/02/25 11:01:38;;;;;;;2.90;1.75;;;;;;;;;;7330453;19;153981;-16
2022/02/25 11:04:13;;;;;;;2.97;1.48;;;;;;;;;;7330267;19;153734;-16
2022/02/25 11:06:49;;;;;;;5.53;1.63;;;;;;;;;;7329620;19;161899;-16
2022/02/25 11:09:24;;;;;;;3.45;1.77;;;;;;;;;;7329087;19;162559;-16
2022/02/25 11:11:56;;;;;;;3.45;1.27;;;;;;;;;;7328888;19;154549;-15
2022/02/25 11:14:27;;;;;;;3.03;1.40;;;;;;;;;;7329743;19;153526;-15
2022/02/25 11:16:59;;;;;;;4.05;1.45;;;;;;;;;;7328477;19;161850;-15
2022/02/25 11:19:31;;;;;;;3.08;1.27;;;;;;;;;;7329707;19;162491;-15
2022/02/25 11:22:06;;;;;;;4.30;1.73;;;;;;;;;;7330041;19;154101;-15
2022/02/25 11:24:40;;;;;;;2.15;1.33;;;;;;;;;;7329696;19;153543;-15
2022/02/25 11:27:26;;;;;;;5.20;1.52;;;;;;;;;;7328442;19;162010;-14
2022/02/25 11:30:04;;;;;;;4.13;1.58;;;;;;;;;;7329232;19;162441;-14
2022/02/25 11:32:41;;;;;;;3.10;1.50;;;;;;;;;;7329613;19;154210;-14
2022/02/25 11:35:26;;;;;;;2.17;1.13;;;;;;;;;;7329357;19;153826;-15
2022/02/25 11:38:12;;;;;;;3.20;1.25;;;;;;;;;;7329036;19;161790;-15
2022/02/25 11:41:05;;;;;;;2.38;1.10;;;;;;;;;;7328931;19;162627;-15
2022/02/25 11:43:42;;;;;;;2.63;1.30;;;;;;;;;;7328712;19;154009;-15
2022/02/25 11:46:16;;;;;;;2.08;1.60;;;;;;;;;;7326029;19;153508;-16
2022/02/25 11:48:50;;;;;;;2.00;1.50;;;;;;;;;;7326670;19;162170;-15
2022/02/25 11:51:32;;;;;;;3.13;1.45;;;;;;;;;;7328539;19;162500;-14
2022/02/25 11:54:41;;;;;;;2.70;1.45;;;;;;;;;;7327681;19;153937;-15
2022/02/25 11:57:31;;;;;;;1.20;1.10;;;;;;;;;;7328825;19;153529;-22
2022/02/25 12:00:21;;;;;;;3.08;1.38;;;;;;;;;;7328286;19;161940;-15
2022/02/25 12:03:15;;;;;;;2.53;1.40;;;;;;;;;;7328050;19;162369;-15
2022/02/25 12:05:48;;;;;;;2.42;1.10;;;;;;;;;;7328506;19;153998;-15
2022/02/25 12:08:31;;;;;;;2.70;1.60;;;;;;;;;;7327365;19;153483;-15
2022/02/25 12:11:19;;;;;;;1.85;1.00;;;;;;;;;;7328038;19;162003;-15
2022/02/25 12:13:52;;;;;;;1.88;1.33;;;;;;;;;;7327774;19;162653;-15
2022/02/25 12:16:29;;;;;;;2.42;1.30;;;;;;;;;;7328226;19;153983;-15
2022/02/25 12:19:11;;;;;;;2.22;1.40;;;;;;;;;;7328034;19;153599;-16
2022/02/25 12:21:45;;;;;;;3.37;1.43;;;;;;;;;;7327311;19;161815;-15
2022/02/25 12:24:17;;;;;;;2.67;1.27;;;;;;;;;;7334147;19;162391;-15
2022/02/25 12:27:01;;;;;;;2.67;1.20;;;;;;;;;;7334437;19;153976;-16
2022/02/25 12:29:38;;;;;;;4.55;1.50;;;;;;;;;;7329932;19;153638;-15
2022/02/25 12:32:13;;;;;;;2.75;1.40;;;;;;;;;;7331780;19;161970;-15
2022/02/25 12:34:44;;;;;;;3.58;1.42;;;;;;;;;;7332223;19;162579;-15
2022/02/25 12:37:19;;;;;;;2.40;1.33;;;;;;;;;;7334727;19;153992;-15
2022/02/25 12:39:50;;;;;;;4.88;1.42;;;;;;;;;;7334362;19;153492;-15
2022/02/25 12:42:31;;;;;;;2.00;1.17;;;;;;;;;;7334134;19;162021;-15
2022/02/25 12:45:05;;;;;;;2.88;1.10;;;;;;;;;;7333609;19;162372;-16
2022/02/25 12:47:37;;;;;;;2.80;1.23;;;;;;;;;;7334320;19;153946;-16
2022/02/25 12:50:12;;;;;;;2.50;1.33;;;;;;;;;;7331770;19;153496;-15
2022/02/25 12:52:44;;;;;;;2.70;1.20;;;;;;;;;;7333725;19;162069;-16
2022/02/25 12:55:19;;;;;;;1.80;1.42;;;;;;;;;;7333948;19;162385;-15
2022/02/25 12:57:55;;;;;;;2.55;1.33;;;;;;;;;;7332848;19;153960;-15
2022/02/25 13:00:29;;;;;;;2.13;1.38;;;;;;;;;;7334116;19;153498;-15
2022/02/25 13:03:03;;;;;;;3.15;1.30;;;;;;;;;;7333575;19;161855;-15
2022/02/25 13:05:35;;;;;;;2.30;1.27;;;;;;;;;;7333625;19;162640;-17
2022/02/25 13:08:07;;;;;;;3.28;1.45;;;;;;;;;;7333975;19;154106;-16
2022/02/25 13:10:38;;;;;;;3.75;1.25;;;;;;;;;;7333901;19;153737;-16
2022/02/25 13:13:11;;;;;;;2.10;1.33;;;;;;;;;;7331848;19;162014;-15
2022/02/25 13:15:45;;;;;;;3.88;1.20;;;;;;;;;;7333169;19;162542;-16
2022/02/25 13:18:23;;;;;;;3.72;1.35;;;;;;;;;;7333463;19;154098;-15
2022/02/25 13:21:03;;;;;;;6.03;1.52;;;;;;;;;;7333199;19;153685;-16
2022/02/25 13:23:35;;;;;;;2.83;1.25;;;;;;;;;;7332861;19;161988;-15
2022/02/25 13:26:08;;;;;;;2.67;1.35;;;;;;;;;;7332620;19;162633;-15
2022/02/25 13:28:40;;;;;;;3.17;1.30;;;;;;;;;;7332585;19;154237;-16
2022/02/25 13:31:14;;;;;;;1.92;1.23;;;;;;;;;;7333193;19;153309;-16
2022/02/25 13:33:48;;;;;;;4.28;1.40;;;;;;;;;;7331991;19;161844;-16
2022/02/25 13:36:19;;;;;;;2.95;1.40;;;;;;;;;;7332493;19;162541;-16
2022/02/25 13:38:58;;;;;;;1.63;1.17;;;;;;;;;;7332728;19;154193;-16
2022/02/25 13:41:36;;;;;;;2.15;1.27;;;;;;;;;;7331071;19;153527;-16
2022/02/25 13:44:14;;;;;;;3.42;1.77;;;;;;;;;;7331028;19;162067;-15
2022/02/25 13:46:54;;;;;;;3.05;1.33;;;;;;;;;;7329926;19;162405;-16
2022/02/25 13:52:28;;;;;;;3.72;1.48;;;;;;;;;;7330399;19;153506;-16
2022/02/25 13:55:11;;;;;;;3.72;1.00;;;;;;;;;;7334051;19;161512;-15
2022/02/25 13:57:46;;;;;;;4.20;1.33;;;;;;;;;;7329027;19;163029;-16
2022/02/25 14:00:22;;;;;;;3.38;1.40;;;;;;;;;;7330996;19;154127;-16
2022/02/25 14:02:57;;;;;;;3.05;1.00;;;;;;;;;;7330958;19;153768;-16
2022/02/25 14:05:37;;;;;;;4.57;1.73;;;;;;;;;;7329893;19;162809;-14
2022/02/25 14:08:20;;;;;;;2.60;1.33;;;;;;;;;;7329031;19;162611;-16
2022/02/25 14:10:52;;;;;;;2.45;1.30;;;;;;;;;;7328488;19;153955;-17
2022/02/25 14:13:32;;;;;;;2.40;1.23;;;;;;;;;;7330372;19;153641;-16
2022/02/25 14:16:04;;;;;;;2.10;1.30;;;;;;;;;;7330366;19;161819;-16
2022/02/25 14:18:38;;;;;;;2.33;1.17;;;;;;;;;;7330174;19;162702;-16
2022/02/25 14:21:09;;;;;;;2.55;1.00;;;;;;;;;;7330461;19;154181;-16
2022/02/25 14:23:43;;;;;;;4.28;1.60;;;;;;;;;;7333445;19;154258;-16
2022/02/25 14:26:15;;;;;;;4.38;1.52;;;;;;;;;;7328254;19;161843;-17
2022/02/25 14:28:46;;;;;;;2.97;1.30;;;;;;;;;;7330864;19;162400;-16
2022/02/25 14:31:25;;;;;;;4.32;1.63;;;;;;;;;;7328832;19;154056;-15
2022/02/25 14:34:01;;;;;;;2.10;1.40;;;;;;;;;;7331419;19;153667;-17
2022/02/25 14:36:37;;;;;;;2.50;1.52;;;;;;;;;;7329859;19;161856;-16
2022/02/25 14:39:10;;;;;;;2.58;1.55;;;;;;;;;;7333414;19;162355;-16
2022/02/25 14:41:41;;;;;;;2.72;1.08;;;;;;;;;;7331019;19;153964;-16
2022/02/25 14:44:14;;;;;;;4.68;1.45;;;;;;;;;;7329240;19;153657;-16
2022/02/25 14:46:47;;;;;;;4.25;1.65;;;;;;;;;;7326998;19;161763;-16
2022/02/25 14:49:22;;;;;;;2.40;1.48;;;;;;;;;;7328795;19;162458;-16
2022/02/25 14:51:53;;;;;;;4.13;1.27;;;;;;;;;;7330846;19;153981;-16
2022/02/25 14:54:24;;;;;;;2.25;1.42;;;;;;;;;;7330842;19;153557;-16
2022/02/25 14:56:55;;;;;;;3.28;1.55;;;;;;;;;;7330526;19;162205;-16
2022/02/25 14:59:27;;;;;;;3.67;1.38;;;;;;;;;;7330291;19;162339;-15
2022/02/25 15:01:59;;;;;;;2.15;1.20;;;;;;;;;;7330530;19;154084;-16
2022/02/25 15:04:34;;;;;;;2.95;1.15;;;;;;;;;;7328283;19;153516;-15
2022/02/25 15:07:08;;;;;;;2.22;1.35;;;;;;;;;;7331192;19;161961;-15
2022/02/25 15:09:39;;;;;;;6.00;1.42;;;;;;;;;;7328799;19;162332;-16
2022/02/25 15:12:12;;;;;;;4.35;1.30;;;;;;;;;;7329849;19;154395;-16
2022/02/25 15:14:43;;;;;;;3.30;1.50;;;;;;;;;;7329791;19;153790;-16
2022/02/25 15:17:14;;;;;;;4.47;1.55;;;;;;;;;;7328484;19;161741;-16
2022/02/25 15:19:48;;;;;;;9.60;1.98;;;;;;;;;;7329525;19;162481;-16
2022/02/25 15:22:20;;;;;;;2.83;1.60;;;;;;;;;;7329969;19;153973;-16
2022/02/25 15:24:52;;;;;;;3.70;1.70;;;;;;;;;;7330029;19;153464;-17
2022/02/25 15:27:24;;;;;;;3.30;2.05;;;;;;;;;;7332096;19;161910;-16
2022/02/25 15:29:56;;;;;;;1.80;1.60;;;;;;;;;;7329091;19;162662;-16
2022/02/25 16:43:02;;;;;;;4.18;1.35;;;;;;;;;;7368962;19;132623;-14
2022/02/25 16:45:38;;;;;;;9.32;1.63;;;;;;;;;;7363635;19;153528;-14
2022/02/25 16:48:10;;;;;;;4.05;1.30;;;;;;;;;;7364481;19;162027;-13
2022/02/25 16:50:44;;;;;;;5.80;1.35;;;;;;;;;;7363776;19;162379;-13
2022/02/25 16:53:15;;;;;;;3.45;1.17;;;;;;;;;;7364591;19;154116;-12
2022/02/25 16:55:47;;;;;;;4.22;1.25;;;;;;;;;;7364269;19;153810;-14
2022/02/25 16:58:21;;;;;;;5.65;1.30;;;;;;;;;;7363677;19;161818;-14
2022/02/25 17:00:52;;;;;;;5.22;1.60;;;;;;;;;;7363946;19;162417;-14
2022/02/25 17:03:25;;;;;;;3.28;1.52;;;;;;;;;;7364349;19;154212;-13
2022/02/25 17:05:56;;;;;;;;;;;;;;;;;;7364789;19;153686;-14
2022/02/25 17:08:30;;;;;;;3.30;0.93;;;;;;;;;;7364053;19;162081;-13
2022/02/25 17:11:04;;;;;;;2.92;1.10;;;;;;;;;;7363010;19;162397;-13
2022/02/25 17:13:38;;;;;;;2.63;1.08;;;;;;;;;;7364228;19;154107;-13
2022/02/25 17:16:11;;;;;;;3.35;1.40;;;;;;;;;;7364241;19;153579;-15
2022/02/25 17:18:44;;;;;;;4.50;1.50;;;;;;;;;;7363502;19;161785;-14
2022/02/25 17:21:15;;;;;;;3.88;1.70;;;;;;;;;;7363155;19;162502;-14
2022/02/25 17:23:47;;;;;;;2.05;1.15;;;;;;;;;;7363253;19;154006;-13
2022/02/25 17:26:19;;;;;;;3.25;1.15;;;;;;;;;;7361524;19;154943;-14
2022/02/25 17:28:53;;;;;;;4.00;1.47;;;;;;;;;;7358618;19;161823;-13
2022/02/25 17:31:25;;;;;;;4.38;1.38;;;;;;;;;;7359294;19;162501;-14
2022/02/25 17:33:56;;;;;;;3.83;1.38;;;;;;;;;;7356604;19;154028;-13
2022/02/25 17:36:28;;;;;;;3.00;1.70;;;;;;;;;;7364389;19;153515;-14
2022/02/25 17:38:59;;;;;;;4.68;1.00;;;;;;;;;;7361590;19;161998;-14
2022/02/25 17:41:31;;;;;;;3.53;1.33;;;;;;;;;;7360039;19;162376;-15
2022/02/25 17:44:08;;;;;;;1.70;1.13;;;;;;;;;;7335485;19;153893;-15
2022/02/25 17:46:39;;;;;;;4.07;1.42;;;;;;;;;;7336052;19;153542;-14
2022/02/25 17:49:11;;;;;;;2.95;1.13;;;;;;;;;;7334721;19;161940;-15
2022/02/25 17:51:44;;;;;;;1.48;1.10;;;;;;;;;;7335008;19;162458;-14
2022/02/25 17:54:15;;;;;;;3.20;1.33;;;;;;;;;;7330857;19;154141;-15
2022/02/25 17:56:46;;;;;;;10.52;2.05;;;;;;;;;;7336919;19;153802;-15
2022/02/25 17:59:21;;;;;;;3.75;1.25;;;;;;;;;;7336156;19;162163;-15
2022/02/25 18:01:52;;;;;;;3.47;1.38;;;;;;;;;;7335813;19;162757;-15
2022/02/25 18:04:23;;;;;;;5.60;1.35;;;;;;;;;;7335615;19;153798;-14
2022/02/25 18:06:57;;;;;;;1.25;1.02;;;;;;;;;;7336357;19;153638;-14
2022/02/25 18:09:29;;;;;;;2.65;0.93;;;;;;;;;;7334140;19;162065;-14
2022/02/25 18:12:00;;;;;;;4.65;1.13;;;;;;;;;;7333931;19;162757;-14
2022/02/25 18:14:34;;;;;;;3.50;1.10;;;;;;;;;;7335006;19;153939;-23
2022/02/25 18:17:06;;;;;;;2.63;1.20;;;;;;;;;;7335612;19;153605;-15
2022/02/25 18:19:37;;;;;;;2.33;0.90;;;;;;;;;;7333476;19;163446;-15
2022/02/25 18:22:09;;;;;;;3.10;1.10;;;;;;;;;;7334797;19;162435;-13
2022/02/25 18:24:40;;;;;;;2.72;0.90;;;;;;;;;;7335500;19;153930;-14
2022/02/25 18:27:11;;;;;;;2.25;0.93;;;;;;;;;;7335526;19;153535;-14
2022/02/25 18:29:45;;;;;;;3.75;1.80;;;;;;;;;;7335092;19;162335;-15
2022/02/25 18:32:17;;;;;;;2.58;1.10;;;;;;;;;;7334405;19;162359;-13
2022/02/25 18:34:48;;;;;;;3.13;1.10;;;;;;;;;;7334350;19;153948;-15
2022/02/25 18:37:19;;;;;;;1.58;0.90;;;;;;;;;;7335275;19;153625;-15
2022/02/25 18:39:50;;;;;;;2.22;0.95;;;;;;;;;;7332219;19;162051;-13
2022/02/25 18:42:21;;;;;;;2.72;1.05;;;;;;;;;;7330833;19;162359;-14
2022/02/25 18:44:55;;;;;;;2.70;0.90;;;;;;;;;;7335665;19;154295;-14
2022/02/25 18:47:29;;;;;;;3.22;1.10;;;;;;;;;;7333507;19;153454;-14
2022/02/25 18:50:01;;;;;;;1.88;0.85;;;;;;;;;;7334276;19;161838;-14
2022/02/25 18:52:32;;;;;;;2.50;0.90;;;;;;;;;;7333047;19;162499;-15
2022/02/25 18:55:04;;;;;;;1.77;1.00;;;;;;;;;;7329512;19;153969;-15
2022/02/25 18:57:35;;;;;;;1.95;1.08;;;;;;;;;;7331568;19;153679;-14
2022/02/25 19:00:12;;;;;;;1.98;0.93;;;;;;;;;;7334316;19;161902;-15
2022/02/25 19:02:44;;;;;;;1.50;0.90;;;;;;;;;;7334828;19;162422;-15
2022/02/25 19:05:16;;;;;;;;;;;;;;;;;;7329101;19;154869;-14
2022/02/25 19:07:47;;;;;;;3.60;1.25;;;;;;;;;;7330711;19;153484;-14
2022/02/25 19:10:18;;;;;;;2.38;1.17;;;;;;;;;;7331742;19;161799;-15
2022/02/25 19:12:49;;;;;;;5.30;1.27;;;;;;;;;;7331822;19;162416;-14
2022/02/25 19:15:24;;;;;;;2.03;0.88;;;;;;;;;;7332928;19;153991;-14
2022/02/25 19:17:55;;;;;;;1.45;0.73;;;;;;;;;;7333476;19;153594;-14
2022/02/25 19:20:27;;;;;;;1.95;1.02;;;;;;;;;;7333550;19;161910;-15
2022/02/25 19:22:58;;;;;;;2.28;1.30;;;;;;;;;;7333899;19;162747;-14
2022/02/25 19:25:30;;;;;;;3.22;1.02;;;;;;;;;;7333688;19;153855;-14
2022/02/25 19:28:01;;;;;;;0.80;0.65;;;;;;;;;;7333877;19;154077;-14
2022/02/25 19:30:35;;;;;;;0.73;0.70;;;;;;;;;;7333833;19;161816;-15
2022/02/25 19:33:07;;;;;;;2.50;0.90;;;;;;;;;;7330965;19;162416;-14
2022/02/25 19:35:38;;;;;;;2.67;1.20;;;;;;;;;;7332034;19;154028;-14
2022/02/25 19:38:10;;;;;;;1.75;0.90;;;;;;;;;;7333049;19;153459;-14
2022/02/25 19:40:41;;;;;;;2.70;0.60;;;;;;;;;;7332211;19;162070;-14
2022/02/25 19:43:12;;;;;;;2.78;1.00;;;;;;;;;;7334714;19;162407;-14
2022/02/25 19:45:47;;;;;;;24.27;6.32;;;;;;;;;;7330936;19;153943;-14
2022/02/25 19:48:18;;;;;;;39.15;9.52;;;;;;;;;;7333568;19;153639;-14
2022/02/25 19:50:50;;;;;;;24.33;6.78;;;;;;;;;;7333454;19;162020;-15
2022/02/25 19:53:21;;;;;;;11.50;3.50;;;;;;;;;;7332052;19;162323;-15
2022/02/25 19:55:53;;;;;;;19.92;4.80;;;;;;;;;;7333767;19;154012;-14
2022/02/25 19:58:24;;;;;;;13.45;4.47;;;;;;;;;;7334066;19;153651;-14
2022/02/25 20:00:58;;;;;;;17.05;5.03;;;;;;;;;;7332274;19;162138;-15
2022/02/25 20:03:30;;;;;;;12.90;4.55;;;;;;;;;;7330598;19;162511;-14
2022/02/25 20:06:01;;;;;;;15.05;3.92;;;;;;;;;;7331407;19;153911;-14
2022/02/25 20:08:33;;;;;;;13.15;4.75;;;;;;;;;;7331259;19;153746;-15
2022/02/25 20:11:05;;;;;;;10.73;3.77;;;;;;;;;;7331830;19;161758;-14
2022/02/25 20:13:37;;;;;;;25.48;8.27;;;;;;;;;;7329146;19;162244;-14
2022/02/25 20:16:13;;;;;;;17.05;6.45;;;;;;;;;;7331804;19;154210;-14
2022/02/25 20:18:44;;;;;;;16.13;6.55;;;;;;;;;;7333272;19;153739;-14
2022/02/25 20:21:16;;;;;;;19.35;6.45;;;;;;;;;;7333526;19;161812;-14
2022/02/25 20:23:47;;;;;;;18.67;7.05;;;;;;;;;;7330782;19;162490;-15
2022/02/25 20:26:20;;;;;;;15.95;6.45;;;;;;;;;;7333187;19;153999;-14
2022/02/25 20:28:55;;;;;;;13.88;4.72;;;;;;;;;;7326916;19;153734;-13
2022/02/25 20:31:29;;;;;;;9.15;4.65;;;;;;;;;;7328059;19;162013;-14
2022/02/25 20:34:01;;;;;;;14.70;5.95;;;;;;;;;;7329091;19;162436;-14
2022/02/25 20:36:33;;;;;;;12.40;5.22;;;;;;;;;;7332207;19;154197;-14
2022/02/25 20:39:07;;;;;;;12.53;4.47;;;;;;;;;;7330953;19;154509;-13
2022/02/25 20:41:40;;;;;;;13.75;5.38;;;;;;;;;;7329680;19;161826;-14
2022/02/25 20:44:12;;;;;;;17.63;5.13;;;;;;;;;;7331677;19;162534;-15
2022/02/25 20:46:46;;;;;;;21.05;5.85;;;;;;;;;;7330275;19;154102;-14
2022/02/25 20:49:18;;;;;;;12.65;4.97;;;;;;;;;;7332277;19;153554;-14
2022/02/25 20:51:50;;;;;;;13.45;4.75;;;;;;;;;;7331551;19;161917;-13
2022/02/25 20:54:21;;;;;;;10.55;5.18;;;;;;;;;;7329646;19;162356;-14
2022/02/25 20:56:52;;;;;;;11.43;5.28;;;;;;;;;;7331210;19;153903;-15
2022/02/25 20:59:24;;;;;;;12.77;4.68;;;;;;;;;;7331531;19;153555;-15
2022/02/25 21:01:58;;;;;;;14.48;5.72;;;;;;;;;;7329737;19;161897;-15
2022/02/25 21:04:31;;;;;;;13.80;4.82;;;;;;;;;;7329512;19;162419;-14
2022/02/25 21:07:02;;;;;;;11.98;5.35;;;;;;;;;;7330509;19;154032;-15
2022/02/25 21:09:34;;;;;;;9.80;4.70;;;;;;;;;;7329441;19;153361;-15
2022/02/25 21:12:06;;;;;;;12.90;5.10;;;;;;;;;;7330022;19;162217;-15
2022/02/25 21:14:43;;;;;;;12.38;5.57;;;;;;;;;;7328519;19;162626;-15
2022/02/25 21:17:17;;;;;;;12.15;5.18;;;;;;;;;;7331473;19;153755;-14
2022/02/25 21:19:50;;;;;;;11.95;4.72;;;;;;;;;;7337383;19;153965;-14
2022/02/25 21:22:22;;;;;;;10.43;4.22;;;;;;;;;;7335195;19;162041;-16
2022/02/25 21:24:54;;;;;;;9.68;4.20;;;;;;;;;;7336800;19;162353;-16
2022/02/25 21:27:25;;;;;;;11.32;4.90;;;;;;;;;;7337410;19;154038;-15
2022/02/25 21:29:57;;;;;;;7.43;4.25;;;;;;;;;;7337549;19;153409;-14
2022/02/25 21:32:31;;;;;;;13.23;4.97;;;;;;;;;;7336932;19;161922;-16
2022/02/25 21:35:02;;;;;;;11.27;4.45;;;;;;;;;;7333901;19;162420;-15
2022/02/25 21:37:34;;;;;;;9.15;4.20;;;;;;;;;;7337163;19;154105;-16
2022/02/25 21:40:05;;;;;;;10.50;4.65;;;;;;;;;;7335866;19;153475;-16
2022/02/25 21:42:37;;;;;;;8.77;4.35;;;;;;;;;;7334726;19;161965;-15
2022/02/25 21:45:10;;;;;;;11.00;5.00;;;;;;;;;;7335463;19;162495;-16
2022/02/25 21:47:44;;;;;;;10.25;4.50;;;;;;;;;;7336175;19;153989;-16
2022/02/25 21:50:16;;;;;;;13.10;4.25;;;;;;;;;;7336505;19;153747;-14
2022/02/25 21:52:49;;;;;;;8.40;4.38;;;;;;;;;;7336418;19;162071;-16
2022/02/25 21:55:20;;;;;;;8.85;4.38;;;;;;;;;;7334751;19;162380;-15
2022/02/25 21:57:52;;;;;;;8.35;3.90;;;;;;;;;;7336203;19;154114;-12
2022/02/25 22:00:23;;;;;;;10.60;4.45;;;;;;;;;;7336613;19;153598;-14
2022/02/25 22:02:58;;;;;;;9.95;3.92;;;;;;;;;;7335620;19;161763;-15
2022/02/25 22:05:29;;;;;;;21.33;4.85;;;;;;;;;;7336181;19;162360;-14
2022/02/25 22:08:01;;;;;;;10.80;4.35;;;;;;;;;;7336234;19;154274;-14
2022/02/25 22:10:36;;;;;;;9.40;3.83;;;;;;;;;;7335726;19;153550;-14
2022/02/25 22:13:08;;;;;;;7.60;4.00;;;;;;;;;;7335969;19;161781;-15
2022/02/25 22:15:40;;;;;;;9.73;4.17;;;;;;;;;;7332781;19;162874;-14
2022/02/25 22:18:14;;;;;;;9.00;4.18;;;;;;;;;;7335804;19;154126;-14
2022/02/25 22:20:45;;;;;;;7.45;3.70;;;;;;;;;;7335386;19;153862;-15
2022/02/25 22:23:17;;;;;;;6.20;3.83;;;;;;;;;;7335539;19;161841;-14
2022/02/25 22:25:52;;;;;;;6.88;3.58;;;;;;;;;;7335236;19;162438;-15
2022/02/25 22:28:24;;;;;;;7.72;3.60;;;;;;;;;;7325217;19;154027;-14
2022/02/25 22:30:56;;;;;;;7.15;3.67;;;;;;;;;;7326238;19;153687;-15
2022/02/25 22:33:31;;;;;;;;;;;;;;;;;;7324869;19;161958;-14
2022/02/25 22:36:03;;;;;;;9.38;3.40;;;;;;;;;;7320159;19;162627;-14
2022/02/25 22:38:35;;;;;;;7.97;4.17;;;;;;;;;;7326253;19;154455;-13
2022/02/25 22:41:06;;;;;;;4.18;2.72;;;;;;;;;;7324891;19;153229;-14
2022/02/25 22:43:38;;;;;;;7.72;3.42;;;;;;;;;;7326447;19;161800;-15
2022/02/25 22:46:09;;;;;;;8.93;4.07;;;;;;;;;;7332845;19;162562;-14
2022/02/25 22:48:44;;;;;;;10.75;3.35;;;;;;;;;;7331524;19;154140;-14
2022/02/25 22:59:36;;;;;;;7.25;3.20;;;;;;;;;;7331380;19;153950;-14
2022/02/25 23:02:09;;;;;;;8.23;3.60;;;;;;;;;;7326750;19;153733;-13
2022/02/25 23:07:29;;;;;;;7.07;3.17;;;;;;;;;;7330225;19;162574;-15
2022/02/25 23:10:01;;;;;;;8.48;4.03;;;;;;;;;;7329269;19;154088;-13
2022/02/25 23:12:32;;;;;;;7.53;3.90;;;;;;;;;;7328422;19;153542;-14
2022/02/25 23:15:03;;;;;;;5.65;2.75;;;;;;;;;;7327322;19;162055;-14
2022/02/25 23:17:35;;;;;;;9.18;3.08;;;;;;;;;;7330036;19;162363;-14
2022/02/25 23:20:10;;;;;;;5.93;3.22;;;;;;;;;;7329302;19;154001;-14
2022/02/25 23:22:41;;;;;;;7.70;3.72;;;;;;;;;;7332980;19;153675;-14
2022/02/25 23:25:13;;;;;;;8.27;3.63;;;;;;;;;;7325786;19;161894;-13
2022/02/25 23:27:45;;;;;;;9.57;3.33;;;;;;;;;;7328733;19;163903;-13
2022/02/25 23:30:17;;;;;;;5.93;2.72;;;;;;;;;;7327735;19;154208;-14
2022/02/25 23:32:50;;;;;;;5.32;2.53;;;;;;;;;;7325088;19;153666;-15
2022/02/25 23:35:24;;;;;;;6.00;2.97;;;;;;;;;;7324018;19;161920;-15
2022/02/25 23:37:55;;;;;;;6.03;2.67;;;;;;;;;;7324191;19;162351;-15
2022/02/25 23:40:27;;;;;;;5.68;3.13;;;;;;;;;;7323580;19;153919;-14
2022/02/25 23:42:58;;;;;;;6.70;3.10;;;;;;;;;;7328147;19;153564;-14
2022/02/25 23:45:30;;;;;;;4.78;2.90;;;;;;;;;;7327984;19;161915;-14
2022/02/25 23:48:01;;;;;;;5.20;2.85;;;;;;;;;;7328753;19;162042;-15
2022/02/25 23:50:37;;;;;;;4.90;2.67;;;;;;;;;;7330043;19;153742;-15
2022/02/25 23:53:09;;;;;;;6.32;2.85;;;;;;;;;;7326819;19;153514;-14
2022/02/25 23:55:40;;;;;;;6.25;2.92;;;;;;;;;;7327484;19;162036;-14
2022/02/25 23:58:12;;;;;;;4.75;2.60;;;;;;;;;;7332016;19;162416;-13
